createdAt,value
2022-10-01T00:01:52.438Z,14.70
2022-10-01T00:04:20.043Z,14.70
2022-10-01T00:06:47.520Z,14.80
2022-10-01T00:09:16.019Z,14.70
2022-10-01T00:11:43.647Z,14.80
2022-10-01T00:14:11.281Z,14.80
2022-10-01T00:16:38.989Z,14.70
2022-10-01T00:19:06.813Z,14.70
2022-10-01T00:21:34.622Z,14.70
2022-10-01T00:24:04.829Z,14.70
2022-10-01T00:26:34.841Z,14.70
2022-10-01T00:29:05.646Z,15.80
2022-10-01T00:31:33.931Z,14.60
2022-10-01T00:34:05.321Z,14.60
2022-10-01T00:36:33.098Z,14.70
2022-10-01T00:39:00.985Z,14.60
2022-10-01T00:41:30.828Z,14.60
2022-10-01T00:44:04.414Z,14.60
2022-10-01T00:46:45.862Z,14.60
2022-10-01T00:49:24.290Z,14.60
2022-10-01T00:51:58.041Z,14.60
2022-10-01T00:54:34.881Z,14.60
2022-10-01T00:57:02.669Z,14.60
2022-10-01T00:59:31.175Z,14.50
2022-10-01T01:01:59.410Z,14.40
2022-10-01T01:04:27.868Z,14.50
2022-10-01T01:06:58.366Z,14.50
2022-10-01T01:09:31.196Z,14.50
2022-10-01T01:12:05.387Z,14.50
2022-10-01T01:15:29.486Z,14.50
2022-10-01T01:17:59.029Z,14.50
2022-10-01T01:20:44.063Z,14.50
2022-10-01T01:23:17.715Z,14.50
2022-10-01T01:25:50.323Z,14.40
2022-10-01T01:28:31.828Z,14.50
2022-10-01T01:31:07.739Z,14.40
2022-10-01T01:33:38.942Z,14.40
2022-10-01T01:36:17.245Z,14.40
2022-10-01T01:38:57.634Z,14.40
2022-10-01T01:41:29.468Z,14.40
2022-10-01T01:44:00.928Z,14.40
2022-10-01T01:46:34.136Z,14.40
2022-10-01T01:49:04.360Z,14.40
2022-10-01T01:51:50.857Z,14.40
2022-10-01T01:54:19.849Z,14.30
2022-10-01T01:56:49.701Z,14.30
2022-10-01T01:59:19.597Z,14.40
2022-10-01T02:01:49.542Z,14.30
2022-10-01T02:04:36.025Z,14.30
2022-10-01T02:07:26.393Z,14.40
2022-10-01T02:10:08.392Z,14.40
2022-10-01T02:13:04.619Z,14.40
2022-10-01T02:16:08.577Z,14.30
2022-10-01T02:18:48.731Z,14.30
2022-10-01T02:21:38.173Z,14.30
2022-10-01T02:24:19.241Z,14.30
2022-10-01T02:26:49.825Z,14.20
2022-10-01T02:29:21.918Z,15.30
2022-10-01T02:31:53.438Z,14.20
2022-10-01T02:34:22.780Z,14.10
2022-10-01T02:36:51.978Z,14.10
2022-10-01T02:39:22.311Z,14.10
2022-10-01T02:41:50.484Z,14.00
2022-10-01T02:44:23.775Z,14.10
2022-10-01T02:47:04.507Z,14.10
2022-10-01T02:49:32.457Z,14.10
2022-10-01T02:52:09.945Z,14.00
2022-10-01T02:54:50.801Z,14.00
2022-10-01T02:57:27.274Z,14.10
2022-10-01T03:00:07.560Z,13.90
2022-10-01T03:02:35.377Z,13.80
2022-10-01T03:05:04.064Z,13.90
2022-10-01T03:07:35.705Z,13.80
2022-10-01T03:10:04.913Z,13.80
2022-10-01T03:12:33.138Z,13.70
2022-10-01T03:15:00.929Z,14.10
2022-10-01T03:17:28.986Z,13.70
2022-10-01T03:19:56.438Z,13.70
2022-10-01T03:22:24.146Z,13.70
2022-10-01T03:24:52.615Z,13.70
2022-10-01T03:27:21.458Z,13.70
2022-10-01T03:29:49.482Z,13.60
2022-10-01T03:32:17.830Z,13.70
2022-10-01T03:34:45.434Z,14.00
2022-10-01T03:37:13.150Z,13.50
2022-10-01T03:39:40.573Z,13.50
2022-10-01T03:42:08.086Z,13.50
2022-10-01T03:44:35.614Z,13.40
2022-10-01T03:47:03.227Z,13.50
2022-10-01T03:49:31.018Z,13.50
2022-10-01T03:51:59.273Z,13.40
2022-10-01T03:54:26.772Z,13.40
2022-10-01T03:56:54.382Z,13.40
2022-10-01T03:59:22.186Z,13.50
2022-10-01T04:01:49.779Z,13.40
2022-10-01T04:04:17.291Z,13.40
2022-10-01T04:06:44.880Z,13.40
2022-10-01T04:09:12.452Z,13.40
2022-10-01T04:11:39.938Z,13.30
2022-10-01T04:14:07.453Z,13.40
2022-10-01T04:16:36.145Z,13.30
2022-10-01T04:19:04.607Z,13.30
2022-10-01T04:21:32.426Z,13.50
2022-10-01T04:24:01.085Z,13.30
2022-10-01T04:26:28.533Z,13.20
2022-10-01T04:28:56.227Z,13.30
2022-10-01T04:31:26.750Z,13.20
2022-10-01T04:33:56.729Z,13.20
2022-10-01T04:36:25.214Z,13.20
2022-10-01T04:38:56.824Z,13.10
2022-10-01T04:41:27.135Z,13.10
2022-10-01T04:43:54.678Z,13.20
2022-10-01T04:46:22.117Z,13.00
2022-10-01T04:48:49.651Z,13.00
2022-10-01T04:51:18.140Z,13.00
2022-10-01T04:53:45.609Z,13.00
2022-10-01T04:56:13.148Z,13.00
2022-10-01T04:58:41.358Z,13.00
2022-10-01T05:01:08.952Z,13.70
2022-10-01T05:03:36.452Z,13.00
2022-10-01T05:06:04.055Z,13.00
2022-10-01T05:08:31.495Z,13.00
2022-10-01T05:11:00.345Z,13.00
2022-10-01T05:13:30.437Z,12.90
2022-10-01T05:15:58.653Z,12.90
2022-10-01T05:18:26.102Z,12.80
2022-10-01T05:20:53.586Z,12.80
2022-10-01T05:23:21.080Z,12.80
2022-10-01T05:25:48.610Z,12.80
2022-10-01T05:28:21.403Z,12.80
2022-10-01T05:30:51.121Z,12.80
2022-10-01T05:33:18.843Z,12.80
2022-10-01T05:35:46.294Z,12.80
2022-10-01T05:38:13.897Z,12.90
2022-10-01T05:40:46.057Z,12.90
2022-10-01T05:43:14.652Z,12.90
2022-10-01T05:45:43.073Z,12.90
2022-10-01T05:48:12.279Z,12.90
2022-10-01T05:50:40.809Z,12.90
2022-10-01T05:53:11.160Z,12.90
2022-10-01T05:55:38.812Z,13.20
2022-10-01T05:58:12.144Z,13.00
2022-10-01T06:00:41.407Z,13.00
2022-10-01T06:03:12.890Z,13.00
2022-10-01T06:05:41.028Z,12.90
2022-10-01T06:08:11.828Z,12.90
2022-10-01T06:10:39.682Z,12.90
2022-10-01T06:13:07.664Z,14.30
2022-10-01T06:15:38.169Z,12.90
2022-10-01T06:18:07.929Z,12.90
2022-10-01T06:20:36.378Z,12.90
2022-10-01T06:23:10.033Z,12.90
2022-10-01T06:25:38.390Z,12.90
2022-10-01T06:28:07.563Z,12.90
2022-10-01T06:30:37.194Z,12.90
2022-10-01T06:33:10.321Z,13.00
2022-10-01T06:35:47.265Z,13.00
2022-10-01T06:38:16.054Z,13.10
2022-10-01T06:40:43.711Z,13.00
2022-10-01T06:43:11.272Z,13.00
2022-10-01T06:45:43.689Z,13.10
2022-10-01T06:48:16.734Z,13.10
2022-10-01T06:50:45.294Z,13.20
2022-10-01T06:53:14.457Z,13.20
2022-10-01T06:55:42.303Z,13.20
2022-10-01T06:58:18.317Z,13.30
2022-10-01T07:00:46.192Z,13.40
2022-10-01T07:03:20.042Z,13.40
2022-10-01T07:05:48.863Z,13.50
2022-10-01T07:08:17.702Z,13.50
2022-10-01T07:10:45.861Z,13.60
2022-10-01T07:13:16.604Z,13.60
2022-10-01T07:15:45.566Z,13.70
2022-10-01T07:18:13.853Z,13.70
2022-10-01T07:20:41.412Z,13.80
2022-10-01T07:23:12.214Z,13.80
2022-10-01T07:25:40.558Z,13.90
2022-10-01T07:28:16.870Z,13.90
2022-10-01T07:31:06.990Z,14.00
2022-10-01T07:33:34.506Z,14.00
2022-10-01T07:36:03.618Z,14.10
2022-10-01T07:38:33.493Z,14.10
2022-10-01T07:41:02.924Z,14.20
2022-10-01T07:43:33.113Z,14.10
2022-10-01T07:46:02.039Z,14.20
2022-10-01T07:48:31.058Z,14.20
2022-10-01T07:50:58.670Z,14.40
2022-10-01T07:53:26.998Z,14.40
2022-10-01T07:55:54.520Z,14.40
2022-10-01T07:58:24.187Z,14.40
2022-10-01T08:00:58.174Z,14.50
2022-10-01T08:03:25.809Z,14.50
2022-10-01T08:05:54.283Z,14.50
2022-10-01T08:08:21.787Z,14.60
2022-10-01T08:10:49.932Z,14.60
2022-10-01T08:13:18.718Z,14.60
2022-10-01T08:15:53.680Z,14.70
2022-10-01T08:18:22.660Z,14.70
2022-10-01T08:20:50.710Z,14.70
2022-10-01T08:23:18.642Z,14.80
2022-10-01T08:25:47.984Z,14.80
2022-10-01T08:28:16.499Z,14.80
2022-10-01T08:30:44.307Z,14.90
2022-10-01T08:33:12.978Z,14.90
2022-10-01T08:35:43.096Z,15.00
2022-10-01T08:38:11.990Z,15.00
2022-10-01T08:40:48.036Z,15.00
2022-10-01T08:43:18.378Z,15.10
2022-10-01T08:45:49.449Z,15.10
2022-10-01T08:48:38.831Z,15.20
2022-10-01T08:51:32.791Z,15.20
2022-10-01T08:54:24.942Z,15.40
2022-10-01T08:56:55.001Z,15.40
2022-10-01T08:59:28.880Z,15.40
2022-10-01T09:01:59.074Z,15.40
2022-10-01T09:04:27.195Z,15.40
2022-10-01T09:07:26.571Z,15.50
2022-10-01T09:10:19.747Z,15.60
2022-10-01T09:12:51.561Z,15.60
2022-10-01T09:15:53.362Z,15.70
2022-10-01T09:18:45.001Z,15.70
2022-10-01T09:21:44.009Z,15.80
2022-10-01T09:24:24.114Z,16.60
2022-10-01T09:26:52.146Z,16.00
2022-10-01T09:29:27.431Z,16.00
2022-10-01T09:31:56.664Z,16.00
2022-10-01T09:34:34.057Z,16.10
2022-10-01T09:37:39.231Z,16.20
2022-10-01T09:40:34.643Z,16.40
2022-10-01T09:43:04.098Z,16.50
2022-10-01T09:45:31.586Z,16.60
2022-10-01T09:48:14.551Z,16.70
2022-10-01T09:50:58.163Z,16.80
2022-10-01T09:53:34.824Z,16.80
2022-10-01T09:56:05.218Z,16.90
2022-10-01T09:58:37.075Z,17.00
2022-10-01T10:01:11.880Z,17.20
2022-10-01T10:03:39.778Z,17.20
2022-10-01T10:06:07.365Z,17.20
2022-10-01T10:08:37.910Z,17.30
2022-10-01T10:11:09.317Z,17.30
2022-10-01T10:13:50.489Z,17.30
2022-10-01T10:16:20.314Z,17.30
2022-10-01T10:18:53.406Z,17.30
2022-10-01T10:21:28.770Z,17.30
2022-10-01T10:23:59.571Z,17.30
2022-10-01T10:26:32.699Z,17.30
2022-10-01T10:29:02.797Z,17.30
2022-10-01T10:31:41.594Z,17.40
2022-10-01T10:34:24.530Z,17.40
2022-10-01T10:36:59.087Z,17.50
2022-10-01T10:39:34.534Z,17.30
2022-10-01T10:42:04.859Z,17.60
2022-10-01T10:44:38.907Z,17.60
2022-10-01T10:47:13.584Z,17.70
2022-10-01T10:49:45.564Z,17.70
2022-10-01T10:52:37.124Z,17.80
2022-10-01T10:55:25.376Z,18.00
2022-10-01T10:57:57.531Z,18.10
2022-10-01T11:00:26.682Z,18.10
2022-10-01T11:03:00.746Z,18.10
2022-10-01T11:05:32.767Z,18.10
2022-10-01T11:08:03.738Z,18.20
2022-10-01T11:10:51.679Z,18.40
2022-10-01T11:16:24.743Z,18.50
2022-10-01T11:19:07.778Z,18.60
2022-10-01T11:21:43.393Z,18.70
2022-10-01T11:24:33.106Z,18.60
2022-10-01T11:27:36.580Z,18.50
2022-10-01T11:30:10.093Z,18.40
2022-10-01T11:32:39.363Z,18.40
2022-10-01T11:35:46.626Z,18.30
2022-10-01T11:41:13.981Z,18.60
2022-10-01T11:43:45.845Z,17.90
2022-10-01T11:46:37.745Z,18.80
2022-10-01T11:49:08.767Z,18.80
2022-10-01T11:51:43.529Z,18.70
2022-10-01T11:54:17.646Z,18.60
2022-10-01T11:57:09.263Z,18.60
2022-10-01T11:59:58.590Z,18.60
2022-10-01T12:02:52.508Z,18.60
2022-10-01T12:13:22.436Z,18.60
2022-10-01T12:15:52.877Z,18.60
2022-10-01T12:18:28.316Z,18.60
2022-10-01T12:21:00.344Z,18.60
2022-10-01T12:23:32.384Z,18.60
2022-10-01T12:26:47.118Z,18.60
2022-10-01T12:29:43.622Z,18.50
2022-10-01T12:32:39.454Z,18.50
2022-10-01T12:35:25.981Z,18.60
2022-10-01T12:38:13.814Z,18.70
2022-10-01T12:40:59.470Z,18.70
2022-10-01T12:44:03.476Z,18.80
2022-10-01T12:46:45.529Z,18.90
2022-10-01T12:49:12.968Z,18.90
2022-10-01T12:51:46.899Z,18.90
2022-10-01T12:54:36.340Z,18.80
2022-10-01T12:57:37.017Z,18.80
2022-10-01T13:00:17.290Z,18.80
2022-10-01T13:03:08.943Z,18.80
2022-10-01T13:05:42.590Z,18.90
2022-10-01T13:08:28.433Z,19.00
2022-10-01T13:11:05.576Z,19.20
2022-10-01T13:13:33.990Z,19.30
2022-10-01T13:16:24.501Z,19.40
2022-10-01T13:19:03.472Z,19.50
2022-10-01T13:21:44.991Z,19.60
2022-10-01T13:24:27.275Z,19.40
2022-10-01T13:27:04.041Z,19.30
2022-10-01T13:30:01.810Z,19.20
2022-10-01T13:32:51.998Z,19.10
2022-10-01T13:35:42.450Z,19.00
2022-10-01T13:38:29.239Z,19.00
2022-10-01T13:41:00.073Z,19.00
2022-10-01T13:43:30.490Z,19.00
2022-10-01T13:46:07.735Z,19.10
2022-10-01T13:48:37.361Z,19.10
2022-10-01T13:51:13.112Z,19.20
2022-10-01T13:53:43.929Z,19.40
2022-10-01T13:56:14.356Z,19.40
2022-10-01T13:58:46.382Z,19.50
2022-10-01T14:01:20.101Z,19.50
2022-10-01T14:03:57.069Z,19.60
2022-10-01T14:06:33.976Z,19.50
2022-10-01T14:09:23.458Z,19.40
2022-10-01T14:12:15.142Z,19.30
2022-10-01T14:15:19.898Z,19.30
2022-10-01T14:17:53.065Z,19.20
2022-10-01T14:20:27.131Z,19.20
2022-10-01T14:23:10.893Z,19.30
2022-10-01T14:25:44.208Z,19.30
2022-10-01T14:28:25.767Z,19.50
2022-10-01T14:31:42.274Z,20.20
2022-10-01T14:34:31.034Z,21.10
2022-10-01T14:36:58.942Z,21.80
2022-10-01T14:39:28.561Z,22.40
2022-10-01T14:41:57.858Z,22.80
2022-10-01T14:44:31.977Z,23.20
2022-10-01T14:47:00.673Z,23.90
2022-10-01T14:49:32.693Z,24.00
2022-10-01T14:52:16.930Z,23.90
2022-10-01T14:54:56.467Z,23.70
2022-10-01T14:57:40.627Z,23.60
2022-10-01T15:00:15.670Z,23.60
2022-10-01T15:02:52.144Z,23.20
2022-10-01T15:05:33.974Z,22.80
2022-10-01T15:08:22.782Z,22.80
2022-10-01T15:11:01.037Z,23.10
2022-10-01T15:13:38.647Z,23.60
2022-10-01T15:16:15.027Z,23.70
2022-10-01T15:18:48.010Z,23.70
2022-10-01T15:21:20.991Z,23.60
2022-10-01T15:23:49.424Z,23.30
2022-10-01T15:26:23.649Z,22.90
2022-10-01T15:29:02.577Z,22.50
2022-10-01T15:31:30.537Z,21.90
2022-10-01T15:34:01.890Z,21.50
2022-10-01T15:36:29.739Z,21.20
2022-10-01T15:38:57.982Z,20.90
2022-10-01T15:41:39.905Z,20.70
2022-10-01T15:44:38.431Z,20.50
2022-10-01T15:47:27.411Z,20.10
2022-10-01T15:50:10.158Z,20.10
2022-10-01T15:52:54.431Z,19.90
2022-10-01T15:55:33.655Z,19.80
2022-10-01T15:58:10.329Z,19.70
2022-10-01T16:01:01.860Z,19.60
2022-10-01T16:03:33.798Z,19.50
2022-10-01T16:06:03.064Z,19.40
2022-10-01T16:08:48.993Z,19.20
2022-10-01T16:11:17.936Z,19.00
2022-10-01T16:13:50.638Z,19.00
2022-10-01T16:16:19.343Z,18.90
2022-10-01T16:18:57.319Z,18.60
2022-10-01T16:21:25.531Z,18.70
2022-10-01T16:23:54.887Z,18.60
2022-10-01T16:26:33.598Z,18.50
2022-10-01T16:29:13.976Z,18.40
2022-10-01T16:31:44.997Z,18.20
2022-10-01T16:34:17.394Z,18.30
2022-10-01T16:36:46.455Z,18.30
2022-10-01T16:39:15.166Z,18.20
2022-10-01T16:41:56.531Z,18.10
2022-10-01T16:44:38.320Z,18.10
2022-10-01T16:47:05.865Z,17.90
2022-10-01T16:49:33.302Z,18.00
2022-10-01T16:52:01.130Z,17.90
2022-10-01T16:54:28.863Z,17.80
2022-10-01T16:56:56.484Z,17.80
2022-10-01T16:59:25.025Z,17.70
2022-10-01T17:01:55.835Z,17.60
2022-10-01T17:04:23.904Z,17.60
2022-10-01T17:06:51.352Z,17.50
2022-10-01T17:09:18.947Z,17.50
2022-10-01T17:11:46.646Z,17.40
2022-10-01T17:14:19.622Z,17.40
2022-10-01T17:16:48.461Z,17.30
2022-10-01T17:19:16.545Z,17.30
2022-10-01T17:21:44.540Z,17.20
2022-10-01T17:24:12.281Z,17.20
2022-10-01T17:26:45.322Z,17.10
2022-10-01T17:29:13.091Z,17.20
2022-10-01T17:31:44.709Z,17.10
2022-10-01T17:34:13.142Z,17.10
2022-10-01T17:36:40.631Z,17.10
2022-10-01T17:39:08.350Z,17.00
2022-10-01T17:41:35.908Z,17.00
2022-10-01T17:44:03.528Z,16.90
2022-10-01T17:46:30.978Z,16.80
2022-10-01T17:48:58.402Z,16.80
2022-10-01T17:51:26.120Z,16.70
2022-10-01T17:53:55.021Z,16.70
2022-10-01T17:56:22.698Z,16.60
2022-10-01T17:58:52.555Z,16.50
2022-10-01T18:01:22.242Z,16.40
2022-10-01T18:04:00.404Z,16.40
2022-10-01T18:06:28.115Z,16.40
2022-10-01T18:08:56.682Z,16.30
2022-10-01T18:11:28.021Z,16.20
2022-10-01T18:13:55.506Z,16.30
2022-10-01T18:16:23.777Z,16.30
2022-10-01T18:21:44.046Z,16.30
2022-10-01T18:24:11.545Z,16.20
2022-10-01T18:26:39.491Z,16.20
2022-10-01T18:29:07.140Z,16.20
2022-10-01T18:31:41.021Z,16.10
2022-10-01T18:34:32.638Z,16.10
2022-10-01T18:37:08.038Z,16.10
2022-10-01T18:39:47.379Z,16.10
2022-10-01T18:42:34.249Z,16.10
2022-10-01T18:45:05.271Z,16.10
2022-10-01T18:47:51.321Z,16.00
2022-10-01T18:50:31.924Z,16.00
2022-10-01T18:53:02.104Z,16.00
2022-10-01T18:55:59.953Z,16.00
2022-10-01T18:58:39.562Z,15.90
2022-10-01T19:01:18.496Z,15.90
2022-10-01T19:04:01.053Z,15.90
2022-10-01T19:06:40.790Z,15.90
2022-10-01T19:09:29.671Z,15.90
2022-10-01T19:12:04.553Z,16.90
2022-10-01T19:15:02.759Z,15.80
2022-10-01T19:17:47.441Z,15.90
2022-10-01T19:20:45.962Z,15.90
2022-10-01T19:23:13.657Z,15.90
2022-10-01T19:25:48.712Z,15.90
2022-10-01T19:28:48.868Z,15.90
2022-10-01T19:31:28.448Z,15.90
2022-10-01T19:34:16.255Z,15.90
2022-10-01T19:36:52.605Z,15.90
2022-10-01T19:39:27.002Z,15.90
2022-10-01T19:42:06.155Z,15.90
2022-10-01T19:44:49.190Z,15.90
2022-10-01T19:47:40.531Z,16.00
2022-10-01T19:50:37.147Z,15.90
2022-10-01T19:53:05.634Z,16.00
2022-10-01T19:55:38.696Z,16.00
2022-10-01T19:58:16.811Z,15.90
2022-10-01T20:00:48.000Z,16.00
2022-10-01T20:03:29.387Z,16.00
2022-10-01T20:06:09.727Z,16.00
2022-10-01T20:08:55.836Z,16.00
2022-10-01T20:11:26.434Z,16.00
2022-10-01T20:14:41.627Z,16.00
2022-10-01T20:17:44.443Z,16.00
2022-10-01T20:20:26.387Z,15.90
2022-10-01T20:23:05.821Z,15.90
2022-10-01T20:25:54.565Z,15.90
2022-10-01T20:28:36.565Z,15.90
2022-10-01T20:31:10.844Z,16.00
2022-10-01T20:33:43.264Z,15.90
2022-10-01T20:36:52.118Z,15.90
2022-10-01T20:39:26.065Z,15.90
2022-10-01T20:41:54.708Z,15.80
2022-10-01T20:44:31.632Z,15.90
2022-10-01T20:47:20.791Z,15.90
2022-10-01T20:50:05.707Z,15.80
2022-10-01T20:53:15.229Z,15.80
2022-10-01T20:56:00.255Z,15.80
2022-10-01T20:58:54.370Z,15.80
2022-10-01T21:01:24.954Z,15.70
2022-10-01T21:04:06.049Z,15.70
2022-10-01T21:06:39.147Z,15.70
2022-10-01T21:09:25.321Z,15.70
2022-10-01T21:11:58.354Z,15.70
2022-10-01T21:14:28.082Z,15.70
2022-10-01T21:17:07.437Z,15.70
2022-10-01T21:20:35.481Z,15.70
2022-10-01T21:23:30.776Z,15.70
2022-10-01T21:26:17.339Z,15.70
2022-10-01T21:29:06.858Z,15.70
2022-10-01T21:31:42.497Z,15.70
2022-10-01T21:34:17.574Z,15.70
2022-10-01T21:37:24.810Z,15.70
2022-10-01T21:40:20.030Z,15.60
2022-10-01T21:43:22.703Z,15.60
2022-10-01T21:46:00.733Z,15.60
2022-10-01T21:48:41.913Z,15.60
2022-10-01T21:51:36.107Z,15.60
2022-10-01T21:54:30.308Z,15.60
2022-10-01T21:57:22.458Z,15.60
2022-10-01T22:00:10.004Z,15.60
2022-10-01T22:03:05.186Z,15.60
2022-10-01T22:05:53.765Z,15.60
2022-10-01T22:08:31.204Z,15.60
2022-10-01T22:11:07.323Z,15.60
2022-10-01T22:13:38.611Z,15.60
2022-10-01T22:16:13.859Z,15.60
2022-10-01T22:19:05.142Z,15.60
2022-10-01T22:21:42.997Z,15.70
2022-10-01T22:24:13.317Z,15.70
2022-10-01T22:26:47.139Z,15.60
2022-10-01T22:29:20.409Z,15.60
2022-10-01T22:31:50.452Z,15.60
2022-10-01T22:34:22.607Z,15.60
2022-10-01T22:37:01.925Z,15.60
2022-10-01T22:39:34.791Z,15.60
2022-10-01T22:42:18.897Z,15.60
2022-10-01T22:44:47.430Z,15.60
2022-10-01T22:47:26.645Z,15.60
2022-10-01T22:50:09.228Z,15.60
2022-10-01T22:53:07.900Z,15.60
2022-10-01T22:55:56.308Z,15.50
2022-10-01T22:58:58.240Z,15.50
2022-10-01T23:01:31.682Z,15.50
2022-10-01T23:04:28.319Z,15.40
2022-10-01T23:06:58.871Z,15.40
2022-10-01T23:09:59.499Z,15.30
2022-10-01T23:12:33.183Z,15.30
2022-10-01T23:15:07.995Z,15.30
2022-10-01T23:18:02.899Z,15.20
2022-10-01T23:20:58.532Z,15.20
2022-10-01T23:23:32.120Z,15.20
2022-10-01T23:26:23.936Z,15.30
2022-10-01T23:29:20.616Z,15.10
2022-10-01T23:32:09.576Z,15.10
2022-10-01T23:35:04.163Z,15.10
2022-10-01T23:37:51.468Z,15.00
2022-10-01T23:40:22.836Z,15.00
2022-10-01T23:43:09.157Z,14.90
2022-10-01T23:45:43.445Z,14.90
2022-10-01T23:48:11.021Z,14.90
2022-10-01T23:50:45.219Z,14.80
2022-10-01T23:53:16.560Z,14.80
2022-10-01T23:56:33.627Z,15.10
2022-10-01T23:59:16.151Z,14.70
